createdAt,value
2019-02-25T00:00:50.264Z,246.20
2019-02-25T00:02:00.299Z,271.37
2019-02-25T00:03:08.639Z,294.03
2019-02-25T00:04:17.009Z,308.73
2019-02-25T00:05:25.893Z,250.37
2019-02-25T00:06:34.184Z,268.03
2019-02-25T00:07:42.532Z,264.73
2019-02-25T00:08:51.169Z,256.73
2019-02-25T00:09:59.476Z,269.83
2019-02-25T00:11:07.662Z,287.63
2019-02-25T00:12:16.878Z,329.13
2019-02-25T00:13:25.599Z,269.27
2019-02-25T00:14:34.002Z,261.57
2019-02-25T00:15:42.816Z,250.10
2019-02-25T00:16:51.218Z,251.33
2019-02-25T00:18:00.405Z,243.23
2019-02-25T00:19:08.672Z,293.33
2019-02-25T00:20:17.001Z,305.97
2019-02-25T00:21:25.627Z,273.77
2019-02-25T00:22:33.894Z,246.10
2019-02-25T00:23:42.087Z,239.80
2019-02-25T00:24:50.374Z,254.77
2019-02-25T00:25:58.998Z,248.93
2019-02-25T00:27:07.282Z,261.57
2019-02-25T00:28:16.111Z,314.43
2019-02-25T00:29:24.488Z,295.40
2019-02-25T00:30:33.066Z,258.87
2019-02-25T00:31:41.848Z,257.70
2019-02-25T00:32:50.263Z,244.10
2019-02-25T00:33:58.875Z,256.17
2019-02-25T00:35:07.835Z,285.10
2019-02-25T00:36:16.105Z,304.37
2019-02-25T00:37:24.931Z,304.10
2019-02-25T00:38:33.394Z,247.53
2019-02-25T00:39:42.088Z,167.10
2019-02-25T00:40:50.585Z,192.43
2019-02-25T00:41:59.392Z,236.33
2019-02-25T00:43:07.652Z,236.43
2019-02-25T00:44:16.407Z,306.80
2019-02-25T00:45:24.741Z,283.43
2019-02-25T00:46:33.190Z,240.40
2019-02-25T00:47:41.932Z,208.27
2019-02-25T00:48:50.606Z,242.90
2019-02-25T00:50:00.024Z,244.60
2019-02-25T00:51:08.448Z,262.27
2019-02-25T00:52:17.495Z,302.07
2019-02-25T00:53:27.056Z,268.37
2019-02-25T00:54:35.530Z,251.73
2019-02-25T00:55:43.923Z,242.80
2019-02-25T00:56:52.055Z,250.77
2019-02-25T00:58:01.531Z,229.47
2019-02-25T00:59:09.961Z,255.20
2019-02-25T01:00:23.113Z,309.27
2019-02-25T01:01:31.456Z,245.80
2019-02-25T01:02:39.876Z,241.70
2019-02-25T01:03:48.520Z,233.93
2019-02-25T01:04:57.902Z,233.57
2019-02-25T01:06:06.665Z,235.00
2019-02-25T01:07:15.675Z,305.07
2019-02-25T01:08:24.010Z,298.53
2019-02-25T01:09:32.663Z,237.23
2019-02-25T01:10:41.371Z,243.10
2019-02-25T01:11:49.687Z,236.10
2019-02-25T01:12:58.458Z,237.07
2019-02-25T01:14:07.227Z,243.77
2019-02-25T01:15:17.158Z,305.33
2019-02-25T01:16:25.752Z,310.73
2019-02-25T01:17:34.095Z,234.50
2019-02-25T01:18:42.576Z,244.87
2019-02-25T01:19:51.674Z,253.30
2019-02-25T01:21:00.050Z,257.93
2019-02-25T01:22:08.690Z,267.17
2019-02-25T01:23:17.238Z,311.17
2019-02-25T01:24:26.949Z,313.47
2019-02-25T01:25:35.676Z,248.70
2019-02-25T01:26:44.075Z,248.90
2019-02-25T01:27:52.555Z,241.03
2019-02-25T01:29:01.266Z,243.30
2019-02-25T01:30:19.378Z,261.47
2019-02-25T01:31:27.813Z,300.03
2019-02-25T01:32:36.006Z,259.10
2019-02-25T01:33:44.202Z,254.77
2019-02-25T01:34:52.580Z,249.30
2019-02-25T01:36:01.076Z,237.07
2019-02-25T01:37:10.031Z,256.67
2019-02-25T01:38:18.515Z,319.93
2019-02-25T01:39:26.834Z,312.70
2019-02-25T01:40:35.549Z,251.37
2019-02-25T01:41:43.823Z,242.97
2019-02-25T01:42:51.875Z,276.73
2019-02-25T01:44:01.233Z,33.93
2019-02-25T01:45:20.916Z,25.47
2019-02-25T01:46:29.825Z,93.70
2019-02-25T01:47:38.157Z,53.60
2019-02-25T01:48:46.675Z,102.67
2019-02-25T01:49:55.166Z,121.73
2019-02-25T01:51:03.687Z,115.07
2019-02-25T01:52:12.110Z,104.83
2019-02-25T01:53:20.664Z,294.60
2019-02-25T01:54:29.922Z,315.73
2019-02-25T01:55:38.425Z,251.37
2019-02-25T01:56:47.005Z,252.30
2019-02-25T01:57:55.488Z,254.03
2019-02-25T01:59:03.669Z,247.90
2019-02-25T02:00:21.388Z,239.63
2019-02-25T02:01:30.457Z,324.33
2019-02-25T02:02:39.199Z,241.10
2019-02-25T02:03:47.789Z,257.70
2019-02-25T02:04:56.843Z,277.73
2019-02-25T02:06:05.047Z,245.47
2019-02-25T02:07:13.922Z,258.33
2019-02-25T02:08:22.533Z,319.43
2019-02-25T02:09:30.973Z,311.93
2019-02-25T02:10:39.781Z,239.57
2019-02-25T02:11:47.982Z,251.83
2019-02-25T02:12:56.434Z,259.20
2019-02-25T02:14:07.971Z,248.03
2019-02-25T02:15:21.494Z,266.77
2019-02-25T02:16:29.909Z,307.03
2019-02-25T02:17:38.459Z,251.83
2019-02-25T02:18:47.063Z,240.67
2019-02-25T02:19:55.287Z,249.57
2019-02-25T02:21:04.021Z,255.07
2019-02-25T02:22:12.538Z,260.33
2019-02-25T02:23:20.993Z,308.67
2019-02-25T02:24:29.693Z,320.60
2019-02-25T02:25:38.314Z,250.00
2019-02-25T02:26:46.803Z,255.77
2019-02-25T02:27:55.834Z,249.37
2019-02-25T02:29:04.253Z,254.47
2019-02-25T02:30:22.660Z,251.47
2019-02-25T02:31:31.493Z,313.33
2019-02-25T02:32:39.733Z,249.07
2019-02-25T02:33:48.038Z,250.43
2019-02-25T02:34:56.286Z,251.77
2019-02-25T02:36:04.734Z,253.80
2019-02-25T02:37:13.097Z,246.67
2019-02-25T02:38:21.762Z,304.47
2019-02-25T02:39:30.367Z,309.20
2019-02-25T02:40:38.969Z,243.60
2019-02-25T02:42:13.852Z,250.40
2019-02-25T02:43:22.305Z,309.90
2019-02-25T02:44:30.696Z,301.93
2019-02-25T02:45:52.785Z,258.17
2019-02-25T02:47:20.643Z,250.07
2019-02-25T02:48:42.807Z,297.37
2019-02-25T02:49:51.118Z,249.13
2019-02-25T02:50:59.669Z,245.37
2019-02-25T02:52:08.368Z,243.47
2019-02-25T02:53:17.410Z,272.13
2019-02-25T02:54:26.162Z,297.10
2019-02-25T02:55:34.850Z,301.77
2019-02-25T02:56:43.208Z,250.07
2019-02-25T02:57:51.778Z,239.50
2019-02-25T02:59:00.350Z,249.20
2019-02-25T03:00:18.431Z,235.90
2019-02-25T03:01:26.708Z,305.57
2019-02-25T03:02:35.432Z,289.60
2019-02-25T03:03:43.826Z,247.63
2019-02-25T03:04:52.411Z,234.03
2019-02-25T03:06:01.060Z,250.23
2019-02-25T03:07:09.722Z,236.40
2019-02-25T03:08:18.059Z,250.70
2019-02-25T03:09:26.433Z,309.20
2019-02-25T03:10:34.991Z,300.63
2019-02-25T03:11:43.246Z,235.97
2019-02-25T03:12:51.872Z,227.37
2019-02-25T03:14:00.431Z,243.60
2019-02-25T03:15:13.346Z,246.57
2019-02-25T03:16:21.732Z,271.60
2019-02-25T03:17:30.125Z,302.40
2019-02-25T03:18:39.046Z,270.13
2019-02-25T03:19:47.084Z,228.77
2019-02-25T03:20:55.626Z,230.03
2019-02-25T03:22:04.028Z,235.10
2019-02-25T03:23:14.250Z,228.57
2019-02-25T03:24:22.595Z,259.57
2019-02-25T03:25:31.165Z,308.97
2019-02-25T03:26:39.596Z,265.97
2019-02-25T03:27:48.116Z,229.13
2019-02-25T03:28:56.814Z,235.77
2019-02-25T03:30:12.468Z,233.43
2019-02-25T03:31:21.013Z,244.07
2019-02-25T03:32:29.816Z,298.43
2019-02-25T03:33:38.234Z,283.80
2019-02-25T03:34:47.957Z,241.80
2019-02-25T03:35:56.423Z,238.97
2019-02-25T03:37:04.869Z,234.33
2019-02-25T03:38:13.596Z,233.63
2019-02-25T03:39:21.783Z,236.10
2019-02-25T03:40:30.473Z,302.73
2019-02-25T03:41:39.089Z,295.17
2019-02-25T03:42:47.591Z,254.00
2019-02-25T03:43:56.305Z,234.40
2019-02-25T03:45:06.559Z,246.10
2019-02-25T03:46:14.668Z,238.57
2019-02-25T03:47:22.950Z,259.13
2019-02-25T03:48:31.467Z,296.20
2019-02-25T03:49:40.440Z,293.37
2019-02-25T03:50:48.742Z,241.50
2019-02-25T03:51:57.250Z,238.83
2019-02-25T03:53:05.639Z,249.27
2019-02-25T03:54:14.214Z,234.20
2019-02-25T03:55:24.043Z,248.60
2019-02-25T03:56:32.455Z,304.30
2019-02-25T03:57:41.663Z,277.90
2019-02-25T03:58:49.840Z,241.83
2019-02-25T03:59:58.169Z,239.50
2019-02-25T04:01:06.499Z,247.67
2019-02-25T04:02:14.837Z,233.37
2019-02-25T04:03:23.559Z,234.37
2019-02-25T04:04:31.977Z,303.77
2019-02-25T04:05:40.600Z,298.67
2019-02-25T04:06:48.906Z,254.90
2019-02-25T04:07:57.134Z,229.27
2019-02-25T04:09:07.239Z,240.57
2019-02-25T04:10:16.937Z,237.93
2019-02-25T04:11:25.770Z,272.17
2019-02-25T04:12:34.084Z,302.43
2019-02-25T04:13:42.598Z,271.57
2019-02-25T04:14:50.791Z,230.87
2019-02-25T04:15:59.163Z,233.23
2019-02-25T04:17:07.200Z,249.10
2019-02-25T04:18:16.177Z,246.43
2019-02-25T04:19:24.213Z,248.53
2019-02-25T04:20:33.060Z,302.77
2019-02-25T04:21:41.567Z,305.40
2019-02-25T04:22:50.044Z,246.03
2019-02-25T04:23:58.338Z,249.67
2019-02-25T04:25:07.683Z,231.87
2019-02-25T04:26:16.193Z,228.77
2019-02-25T04:27:24.603Z,250.50
2019-02-25T04:28:32.894Z,306.33
2019-02-25T04:29:41.482Z,308.07
2019-02-25T04:30:49.684Z,243.00
2019-02-25T04:31:58.064Z,246.73
2019-02-25T04:33:06.387Z,241.30
2019-02-25T04:34:14.573Z,248.13
2019-02-25T04:35:24.683Z,253.70
2019-02-25T04:36:33.187Z,307.20
2019-02-25T04:37:41.759Z,312.33
2019-02-25T04:38:50.103Z,249.03
2019-02-25T04:39:58.445Z,251.93
2019-02-25T04:41:07.258Z,248.23
2019-02-25T04:42:15.766Z,253.17
2019-02-25T04:43:23.868Z,245.97
2019-02-25T04:44:32.460Z,335.57
2019-02-25T04:45:41.222Z,320.57
2019-02-25T04:46:50.073Z,247.17
2019-02-25T04:47:57.998Z,239.93
2019-02-25T04:49:06.431Z,252.90
2019-02-25T04:50:14.999Z,239.33
2019-02-25T04:51:23.185Z,252.27
2019-02-25T04:52:31.811Z,294.40
2019-02-25T04:53:40.318Z,300.87
2019-02-25T04:54:48.627Z,229.17
2019-02-25T04:55:57.180Z,249.50
2019-02-25T04:57:05.436Z,241.87
2019-02-25T04:58:13.483Z,236.60
2019-02-25T04:59:21.701Z,242.83
2019-02-25T05:00:29.928Z,268.63
2019-02-25T05:01:38.064Z,304.27
2019-02-25T05:02:46.468Z,290.23
2019-02-25T05:03:54.670Z,253.10
2019-02-25T05:05:03.093Z,230.27
2019-02-25T05:06:11.506Z,240.50
2019-02-25T05:07:19.799Z,241.47
2019-02-25T05:08:28.347Z,234.17
2019-02-25T05:09:36.641Z,307.10
2019-02-25T05:10:45.409Z,300.07
2019-02-25T05:11:53.553Z,221.23
2019-02-25T05:13:06.233Z,235.27
2019-02-25T05:14:14.448Z,254.13
2019-02-25T05:15:27.075Z,228.00
2019-02-25T05:16:35.554Z,317.03
2019-02-25T05:17:43.950Z,298.87
2019-02-25T05:18:52.306Z,238.43
2019-02-25T05:20:00.578Z,263.50
2019-02-25T05:21:08.621Z,233.27
2019-02-25T05:22:17.200Z,228.17
2019-02-25T05:23:25.405Z,286.40
2019-02-25T05:24:33.810Z,284.70
2019-02-25T05:25:41.973Z,279.73
2019-02-25T05:26:50.079Z,242.23
2019-02-25T05:27:57.880Z,236.93
2019-02-25T05:29:05.909Z,232.33
2019-02-25T05:30:15.944Z,221.20
2019-02-25T05:31:24.178Z,234.13
2019-02-25T05:32:32.403Z,265.43
2019-02-25T05:33:40.597Z,319.37
2019-02-25T05:34:48.848Z,270.93
2019-02-25T05:35:57.319Z,241.50
2019-02-25T05:37:05.543Z,235.90
2019-02-25T05:38:13.659Z,218.40
2019-02-25T05:39:21.838Z,230.63
2019-02-25T05:40:30.211Z,231.43
2019-02-25T05:41:38.165Z,341.67
2019-02-25T05:42:46.456Z,321.30
2019-02-25T05:43:55.388Z,250.43
2019-02-25T05:45:03.480Z,235.77
2019-02-25T05:46:11.605Z,231.87
2019-02-25T05:47:20.160Z,232.20
2019-02-25T05:48:28.480Z,245.40
2019-02-25T05:49:36.704Z,313.17
2019-02-25T05:50:44.882Z,305.40
2019-02-25T05:51:53.215Z,236.43
2019-02-25T05:53:01.730Z,249.17
2019-02-25T05:54:11.153Z,235.97
2019-02-25T05:55:19.661Z,248.87
2019-02-25T05:56:28.078Z,233.73
2019-02-25T05:57:36.589Z,290.07
2019-02-25T05:58:45.216Z,297.43
2019-02-25T05:59:53.523Z,237.37
2019-02-25T06:01:02.394Z,243.97
2019-02-25T06:02:10.435Z,249.33
2019-02-25T06:03:18.901Z,254.43
2019-02-25T06:04:27.565Z,235.80
2019-02-25T06:05:35.942Z,284.73
2019-02-25T06:06:44.178Z,299.27
2019-02-25T06:07:52.848Z,237.27
2019-02-25T06:09:00.961Z,268.77
2019-02-25T06:10:12.328Z,235.93
2019-02-25T06:11:20.264Z,240.10
2019-02-25T06:12:28.740Z,236.83
2019-02-25T06:13:36.747Z,301.43
2019-02-25T06:14:44.888Z,312.20
2019-02-25T06:15:52.983Z,243.93
2019-02-25T06:17:01.132Z,253.67
2019-02-25T06:18:09.502Z,243.83
2019-02-25T06:19:17.779Z,273.93
2019-02-25T06:20:26.309Z,256.00
2019-02-25T06:21:34.695Z,272.33
2019-02-25T06:22:44.484Z,330.33
2019-02-25T06:23:53.112Z,273.33
2019-02-25T06:25:01.749Z,239.40
2019-02-25T06:26:10.184Z,240.67
2019-02-25T06:27:18.288Z,253.57
2019-02-25T06:28:27.422Z,253.90
2019-02-25T06:29:35.629Z,243.90
2019-02-25T06:30:44.020Z,291.83
2019-02-25T06:31:52.074Z,228.67
2019-02-25T06:33:00.884Z,189.57
2019-02-25T06:34:09.573Z,184.87
2019-02-25T06:35:17.715Z,243.57
2019-02-25T06:36:26.190Z,219.40
2019-02-25T06:37:34.528Z,251.03
2019-02-25T06:38:43.253Z,330.93
2019-02-25T06:39:51.848Z,331.80
2019-02-25T06:41:02.918Z,250.67
2019-02-25T06:42:10.986Z,257.20
2019-02-25T06:43:19.618Z,234.97
2019-02-25T06:44:28.508Z,237.00
2019-02-25T06:45:39.960Z,306.30
2019-02-25T06:46:49.147Z,314.07
2019-02-25T06:47:57.434Z,249.87
2019-02-25T06:49:06.071Z,241.07
2019-02-25T06:50:15.013Z,262.40
2019-02-25T06:51:25.310Z,258.40
2019-02-25T06:52:34.219Z,247.03
2019-02-25T06:53:42.112Z,321.83
2019-02-25T06:54:50.262Z,323.93
2019-02-25T06:56:00.679Z,246.03
2019-02-25T06:57:09.044Z,240.37
2019-02-25T06:58:17.522Z,243.90
2019-02-25T06:59:26.794Z,255.03
2019-02-25T07:00:35.152Z,245.77
2019-02-25T07:01:43.807Z,313.77
2019-02-25T07:02:52.109Z,309.53
2019-02-25T07:04:08.498Z,248.53
2019-02-25T07:05:27.553Z,251.77
2019-02-25T07:06:38.108Z,248.93
2019-02-25T07:07:51.221Z,318.03
2019-02-25T07:09:13.477Z,250.43
2019-02-25T07:10:33.707Z,270.00
2019-02-25T07:11:43.774Z,312.17
2019-02-25T07:12:56.496Z,326.60
2019-02-25T07:14:15.992Z,262.30
2019-02-25T07:15:26.102Z,244.23
2019-02-25T07:16:57.291Z,264.17
2019-02-25T07:18:13.558Z,255.87
2019-02-25T07:19:32.698Z,250.67
2019-02-25T07:20:42.883Z,275.37
2019-02-25T07:21:50.904Z,312.63
2019-02-25T07:23:00.782Z,265.03
2019-02-25T07:24:09.079Z,241.43
2019-02-25T07:25:21.768Z,240.77
2019-02-25T07:26:31.998Z,246.20
2019-02-25T07:27:41.912Z,265.30
2019-02-25T07:28:51.773Z,307.40
2019-02-25T07:30:01.878Z,253.27
2019-02-25T07:31:17.176Z,234.87
2019-02-25T07:32:30.314Z,257.23
2019-02-25T07:33:43.204Z,239.70
2019-02-25T07:35:11.445Z,316.30
2019-02-25T07:36:22.273Z,239.50
2019-02-25T07:37:35.654Z,234.97
2019-02-25T07:38:45.801Z,290.97
2019-02-25T07:39:58.534Z,321.70
2019-02-25T07:41:22.191Z,249.20
2019-02-25T07:42:31.967Z,248.37
2019-02-25T07:43:42.167Z,249.57
2019-02-25T07:44:52.240Z,309.43
2019-02-25T07:46:18.528Z,258.20
2019-02-25T07:47:32.156Z,245.07
2019-02-25T07:48:42.463Z,240.63
2019-02-25T07:49:56.540Z,309.87
2019-02-25T07:51:06.736Z,240.67
2019-02-25T07:52:23.984Z,249.63
2019-02-25T07:53:36.585Z,248.30
2019-02-25T07:54:52.025Z,292.17
2019-02-25T07:56:16.879Z,269.70
2019-02-25T07:57:35.241Z,240.67
2019-02-25T07:59:01.314Z,265.30
2019-02-25T08:00:13.187Z,245.20
2019-02-25T08:01:26.322Z,246.87
2019-02-25T08:02:39.740Z,238.10
2019-02-25T08:03:52.304Z,301.03
2019-02-25T08:05:05.268Z,288.13
2019-02-25T08:06:29.618Z,247.77
2019-02-25T08:07:42.055Z,244.47
2019-02-25T08:08:54.940Z,297.07
2019-02-25T08:10:20.934Z,250.07
2019-02-25T08:11:29.172Z,250.50
2019-02-25T08:12:56.067Z,239.17
2019-02-25T08:14:06.119Z,243.30
2019-02-25T08:15:28.559Z,246.23
2019-02-25T08:16:54.732Z,249.53
2019-02-25T08:18:04.649Z,263.97
2019-02-25T08:19:17.619Z,254.60
2019-02-25T08:20:43.812Z,249.10
2019-02-25T08:22:06.124Z,308.83
2019-02-25T08:23:24.730Z,244.83
2019-02-25T08:24:35.191Z,245.87
2019-02-25T08:25:49.226Z,254.20
2019-02-25T08:27:14.228Z,317.63
2019-02-25T08:28:32.942Z,246.63
2019-02-25T08:29:59.344Z,254.17
2019-02-25T08:31:25.559Z,254.47
2019-02-25T08:32:42.172Z,252.70
2019-02-25T08:34:08.382Z,309.93
2019-02-25T08:36:03.121Z,260.57
2019-02-25T08:37:20.966Z,257.50
2019-02-25T08:38:47.016Z,267.70
2019-02-25T08:40:26.168Z,315.77
2019-02-25T08:41:40.513Z,246.10
2019-02-25T08:42:48.309Z,307.47
2019-02-25T08:44:04.222Z,317.53
2019-02-25T08:45:12.481Z,259.33
2019-02-25T08:46:34.348Z,258.50
2019-02-25T08:47:46.707Z,250.53
2019-02-25T08:48:56.436Z,326.97
2019-02-25T08:50:06.831Z,279.87
2019-02-25T08:51:15.018Z,261.70
2019-02-25T08:52:24.696Z,264.97
2019-02-25T08:53:32.884Z,247.80
2019-02-25T08:54:41.324Z,248.97
2019-02-25T08:55:50.114Z,318.37
2019-02-25T08:56:58.692Z,326.17
2019-02-25T08:58:07.387Z,257.70
2019-02-25T08:59:15.896Z,258.73
2019-02-25T09:00:23.927Z,270.97
2019-02-25T09:01:32.755Z,256.63
2019-02-25T09:02:41.673Z,254.13
2019-02-25T09:03:50.021Z,301.83
2019-02-25T09:04:58.423Z,339.30
2019-02-25T09:06:06.625Z,265.47
2019-02-25T09:07:15.521Z,259.20
2019-02-25T09:08:23.587Z,269.83
2019-02-25T09:09:32.015Z,252.37
2019-02-25T09:10:40.661Z,258.30
2019-02-25T09:11:49.240Z,288.57
2019-02-25T09:12:57.252Z,317.80
2019-02-25T09:14:05.763Z,285.57
2019-02-25T09:15:17.081Z,252.80
2019-02-25T09:16:25.410Z,250.40
2019-02-25T09:17:36.557Z,252.77
2019-02-25T09:18:46.933Z,256.20
2019-02-25T09:19:54.945Z,321.47
2019-02-25T09:21:03.403Z,316.70
2019-02-25T09:22:12.024Z,262.77
2019-02-25T09:23:20.369Z,258.40
2019-02-25T09:24:28.867Z,250.23
2019-02-25T09:25:36.847Z,256.60
2019-02-25T09:26:45.164Z,247.57
2019-02-25T09:27:53.497Z,310.13
2019-02-25T09:29:01.921Z,315.67
2019-02-25T09:30:15.989Z,260.60
2019-02-25T09:31:24.216Z,236.77
2019-02-25T09:32:32.184Z,262.03
2019-02-25T09:33:40.893Z,257.77
2019-02-25T09:34:49.578Z,272.67
2019-02-25T09:35:57.831Z,334.83
2019-02-25T09:37:05.927Z,320.37
2019-02-25T09:38:14.787Z,265.50
2019-02-25T09:39:22.948Z,261.00
2019-02-25T09:40:31.100Z,257.40
2019-02-25T09:41:39.738Z,264.40
2019-02-25T09:42:47.686Z,272.87
2019-02-25T09:43:56.246Z,330.47
2019-02-25T09:45:05.850Z,325.57
2019-02-25T09:46:14.228Z,260.30
2019-02-25T09:47:22.488Z,257.70
2019-02-25T09:48:30.534Z,258.67
2019-02-25T09:49:38.894Z,265.57
2019-02-25T09:50:46.918Z,258.50
2019-02-25T09:51:54.976Z,317.67
2019-02-25T09:53:03.179Z,328.07
2019-02-25T09:54:11.377Z,265.20
2019-02-25T09:55:20.085Z,273.93
2019-02-25T09:56:28.187Z,257.87
2019-02-25T09:57:36.215Z,270.13
2019-02-25T09:58:44.632Z,244.07
2019-02-25T09:59:52.987Z,301.57
2019-02-25T10:01:01.611Z,322.63
2019-02-25T10:02:10.149Z,295.00
2019-02-25T10:03:18.511Z,268.27
2019-02-25T10:04:26.546Z,264.40
2019-02-25T10:05:34.702Z,251.03
2019-02-25T10:06:42.804Z,62.83
2019-02-25T10:07:50.968Z,53.23
2019-02-25T10:08:59.140Z,76.87
2019-02-25T10:10:14.162Z,75.43
2019-02-25T10:11:22.559Z,177.50
2019-02-25T10:12:30.803Z,156.87
2019-02-25T10:13:38.954Z,201.10
2019-02-25T10:14:49.447Z,255.60
2019-02-25T10:15:57.561Z,329.90
2019-02-25T10:17:05.600Z,332.83
2019-02-25T10:18:14.007Z,274.40
2019-02-25T10:19:22.495Z,265.60
2019-02-25T10:20:30.782Z,265.03
2019-02-25T10:21:39.188Z,265.87
2019-02-25T10:22:47.330Z,273.90
2019-02-25T10:23:55.928Z,316.70
2019-02-25T10:25:04.832Z,264.37
2019-02-25T10:26:13.181Z,139.60
2019-02-25T10:27:21.335Z,195.90
2019-02-25T10:28:29.643Z,268.33
2019-02-25T10:29:38.053Z,259.33
2019-02-25T10:30:52.590Z,246.67
2019-02-25T10:31:56.300Z,306.03
2019-02-25T10:33:04.690Z,331.33
2019-02-25T10:34:13.243Z,228.93
2019-02-25T10:35:27.208Z,198.83
2019-02-25T10:36:36.048Z,133.80
2019-02-25T10:37:44.185Z,200.13
2019-02-25T10:38:52.533Z,268.30
2019-02-25T10:40:00.992Z,335.87
2019-02-25T10:41:09.262Z,328.73
2019-02-25T10:42:18.024Z,272.10
2019-02-25T10:43:28.086Z,223.33
2019-02-25T10:44:38.176Z,156.63
2019-02-25T10:45:47.007Z,156.60
2019-02-25T10:46:55.359Z,136.93
2019-02-25T10:48:03.877Z,215.70
2019-02-25T10:49:12.321Z,242.37
2019-02-25T10:50:21.013Z,221.37
2019-02-25T10:51:29.173Z,283.80
2019-02-25T10:52:38.772Z,276.57
2019-02-25T10:53:49.426Z,269.47
2019-02-25T10:54:58.312Z,294.70
2019-02-25T10:56:19.275Z,263.93
2019-02-25T10:57:29.091Z,198.10
2019-02-25T10:58:36.925Z,189.27
2019-02-25T10:59:45.263Z,160.13
2019-02-25T11:00:53.631Z,243.93
2019-02-25T11:02:01.935Z,292.77
2019-02-25T11:03:12.378Z,297.47
2019-02-25T11:04:21.796Z,138.27
2019-02-25T11:05:30.637Z,119.10
2019-02-25T11:06:39.083Z,213.80
2019-02-25T11:07:48.200Z,229.07
2019-02-25T11:08:58.242Z,181.23
2019-02-25T11:10:27.128Z,156.47
2019-02-25T11:11:40.122Z,144.13
2019-02-25T11:12:48.674Z,120.27
2019-02-25T11:13:58.774Z,70.13
2019-02-25T11:15:13.907Z,121.80
2019-02-25T11:16:23.464Z,155.07
2019-02-25T11:17:31.761Z,116.13
2019-02-25T11:18:40.547Z,245.13
2019-02-25T11:19:49.077Z,252.50
2019-02-25T11:20:59.008Z,176.60
2019-02-25T11:22:09.990Z,277.07
2019-02-25T11:23:19.401Z,214.23
2019-02-25T11:24:28.609Z,129.43
2019-02-25T11:25:37.032Z,108.93
2019-02-25T11:26:45.336Z,49.83
2019-02-25T11:27:53.818Z,102.43
2019-02-25T11:29:02.689Z,296.10
2019-02-25T11:30:18.874Z,339.57
2019-02-25T11:31:29.095Z,186.73
2019-02-25T11:32:36.754Z,243.03
2019-02-25T11:33:44.952Z,259.60
2019-02-25T11:34:53.687Z,239.47
2019-02-25T11:36:01.863Z,297.47
2019-02-25T11:37:10.014Z,332.73
2019-02-25T11:38:18.711Z,285.40
2019-02-25T11:39:29.677Z,281.83
2019-02-25T11:40:38.370Z,280.90
2019-02-25T11:41:46.855Z,274.20
2019-02-25T11:42:54.964Z,278.73
2019-02-25T11:44:03.164Z,326.17
2019-02-25T11:45:14.641Z,328.97
2019-02-25T11:46:23.254Z,222.30
2019-02-25T11:47:31.556Z,210.83
2019-02-25T11:48:39.570Z,180.93
2019-02-25T11:49:47.772Z,81.10
2019-02-25T11:50:56.354Z,21.77
2019-02-25T11:52:04.892Z,107.87
2019-02-25T11:53:13.007Z,76.50
2019-02-25T11:54:21.260Z,13.83
2019-02-25T11:55:29.669Z,18.73
2019-02-25T11:56:38.531Z,15.23
2019-02-25T11:57:46.991Z,16.53
2019-02-25T11:58:55.253Z,10.27
2019-02-25T12:00:03.416Z,72.80
2019-02-25T12:01:11.887Z,80.13
2019-02-25T12:02:25.431Z,13.93
2019-02-25T12:03:29.992Z,25.83
2019-02-25T12:04:39.149Z,23.87
2019-02-25T12:05:47.556Z,19.93
2019-02-25T12:07:01.322Z,37.67
2019-02-25T12:08:12.584Z,94.13
2019-02-25T12:09:21.360Z,29.17
2019-02-25T12:10:30.051Z,144.07
2019-02-25T12:11:38.310Z,152.73
2019-02-25T12:12:46.860Z,85.07
2019-02-25T12:13:55.538Z,41.03
2019-02-25T12:15:03.863Z,176.27
2019-02-25T12:16:12.197Z,158.73
2019-02-25T12:17:20.458Z,131.80
2019-02-25T12:18:29.132Z,166.20
2019-02-25T12:19:37.514Z,133.23
2019-02-25T12:20:45.724Z,16.67
2019-02-25T12:21:54.000Z,28.33
2019-02-25T12:23:02.518Z,168.17
2019-02-25T12:24:11.057Z,159.47
2019-02-25T12:25:27.049Z,172.90
2019-02-25T12:26:35.514Z,250.40
2019-02-25T12:27:43.885Z,252.17
2019-02-25T12:28:53.251Z,276.33
2019-02-25T12:30:01.547Z,191.20
2019-02-25T12:31:09.955Z,228.43
2019-02-25T12:32:17.849Z,159.07
2019-02-25T12:33:27.477Z,275.97
2019-02-25T12:34:35.702Z,254.83
2019-02-25T12:35:44.273Z,210.47
2019-02-25T12:36:52.693Z,215.10
2019-02-25T12:38:01.099Z,223.13
2019-02-25T12:39:09.595Z,177.67
2019-02-25T12:40:20.162Z,279.67
2019-02-25T12:41:28.556Z,81.67
2019-02-25T12:42:36.692Z,111.50
2019-02-25T12:43:44.705Z,93.90
2019-02-25T12:44:53.459Z,62.17
2019-02-25T12:46:01.995Z,115.13
2019-02-25T12:47:10.427Z,228.03
2019-02-25T12:48:18.673Z,214.90
2019-02-25T12:49:27.195Z,100.97
2019-02-25T12:50:35.384Z,238.33
2019-02-25T12:51:43.578Z,220.17
2019-02-25T12:52:51.630Z,115.30
2019-02-25T12:53:59.787Z,104.43
2019-02-25T12:55:16.562Z,188.63
2019-02-25T12:56:25.082Z,127.93
2019-02-25T12:57:33.261Z,63.47
2019-02-25T12:58:41.465Z,133.07
2019-02-25T12:59:49.931Z,68.17
2019-02-25T13:00:58.171Z,113.33
2019-02-25T13:02:06.437Z,219.50
2019-02-25T13:03:14.715Z,186.73
2019-02-25T13:04:23.199Z,136.70
2019-02-25T13:05:31.901Z,141.03
2019-02-25T13:06:40.431Z,248.50
2019-02-25T13:07:48.733Z,252.10
2019-02-25T13:08:57.079Z,296.33
2019-02-25T13:10:08.636Z,296.70
2019-02-25T13:11:16.887Z,333.60
2019-02-25T13:12:25.297Z,214.23
2019-02-25T13:13:33.852Z,234.70
2019-02-25T13:14:42.225Z,240.93
2019-02-25T13:15:50.524Z,202.57
2019-02-25T13:16:59.305Z,229.93
2019-02-25T13:18:07.628Z,212.30
2019-02-25T13:19:15.785Z,224.47
2019-02-25T13:20:24.309Z,204.57
2019-02-25T13:21:32.979Z,261.73
2019-02-25T13:22:41.219Z,285.73
2019-02-25T13:23:49.289Z,285.93
2019-02-25T13:24:57.782Z,285.60
2019-02-25T13:26:07.324Z,304.73
2019-02-25T13:27:15.880Z,326.37
2019-02-25T13:28:26.230Z,151.80
2019-02-25T13:29:34.428Z,119.50
2019-02-25T13:30:42.572Z,122.67
2019-02-25T13:31:51.112Z,113.47
2019-02-25T13:32:59.317Z,17.47
2019-02-25T13:34:07.607Z,68.63
2019-02-25T13:35:16.369Z,98.37
2019-02-25T13:36:24.861Z,70.67
2019-02-25T13:37:33.316Z,17.17
2019-02-25T13:38:41.598Z,77.13
2019-02-25T13:39:50.135Z,193.47
2019-02-25T13:40:58.391Z,283.37
2019-02-25T13:42:07.083Z,279.60
2019-02-25T13:43:15.294Z,275.43
2019-02-25T13:44:23.644Z,248.97
2019-02-25T13:45:33.115Z,299.17
2019-02-25T13:46:41.380Z,274.90
2019-02-25T13:47:49.716Z,233.63
2019-02-25T13:48:58.353Z,243.43
2019-02-25T13:50:11.342Z,260.63
2019-02-25T13:51:19.646Z,265.57
2019-02-25T13:52:28.048Z,283.27
2019-02-25T13:53:36.479Z,260.50
2019-02-25T13:54:44.854Z,289.23
2019-02-25T13:55:53.052Z,283.23
2019-02-25T13:57:01.318Z,274.73
2019-02-25T13:58:09.615Z,314.60
2019-02-25T13:59:18.022Z,262.97
2019-02-25T14:00:29.762Z,222.97
2019-02-25T14:01:37.990Z,161.47
2019-02-25T14:02:47.677Z,214.10
2019-02-25T14:03:56.042Z,193.03
2019-02-25T14:05:05.228Z,255.67
2019-02-25T14:06:13.626Z,150.17
2019-02-25T14:07:21.687Z,134.23
2019-02-25T14:08:30.204Z,18.73
2019-02-25T14:09:38.721Z,23.23
2019-02-25T14:10:47.017Z,26.83
2019-02-25T14:11:55.109Z,23.37
2019-02-25T14:13:03.633Z,46.67
2019-02-25T14:14:11.920Z,120.00
2019-02-25T14:15:23.422Z,112.47
2019-02-25T14:16:31.708Z,23.67
2019-02-25T14:17:41.010Z,57.60
2019-02-25T14:18:49.427Z,24.43
2019-02-25T14:19:57.738Z,23.67
2019-02-25T14:21:06.553Z,18.23
2019-02-25T14:22:16.555Z,96.17
2019-02-25T14:23:24.904Z,93.57
2019-02-25T14:24:33.187Z,101.30
2019-02-25T14:25:41.723Z,135.90
2019-02-25T14:26:50.599Z,179.53
2019-02-25T14:27:58.907Z,158.10
2019-02-25T14:29:07.278Z,128.27
2019-02-25T14:30:22.345Z,256.47
2019-02-25T14:31:30.684Z,154.43
2019-02-25T14:32:39.478Z,254.70
2019-02-25T14:33:52.064Z,184.13